Airfield :
LOGIN :

Register | Disclaimer

   EN    FR    IT 

 










Legend :    VFR   Marginal VFR   IFR   Intensive IFR   Very Intensive IFR
Visi :
Ceiling :
>= 8 km
>= 3000ft
5 to 8 km
1000 to 3000 ft
1500m to 5 km
500 to 1000 ft
800 to 1500m
200 to 500 ft
< 800m
< 200 ft
Symbols :   Thunderstorms  Fog  Heavy snow  Heavy precipitations  Wind > 20 kt
SIGMETs :     Misc.  Thunderstorms  Icing  Turbulence  Mountain Waves  Volcanic Ashes







- Airport Elevation : 433 ft
- IATA code : CCF
- Download approach charts


LFMK - Carcassonne

CURRENT METAR :
  • 191030Z AUTO VRB03KT 9999 BKN037 BKN043 12/06 Q1023 NOSIG

EXPIRED METARs :
  • 191000Z AUTO 17003KT 100V240 CAVOK 12/06 Q1023 NOSIG
  • 190930Z AUTO 17004KT 120V230 CAVOK 11/06 Q1023 NOSIG
  • 190900Z AUTO 16004KT 120V210 CAVOK 09/06 Q1023 NOSIG
  • 190830Z AUTO 18004KT 140V210 CAVOK 08/05 Q1023 BECMG 08012KT
  • 190800Z AUTO 18004KT 140V220 9999 FEW036 06/04 Q1022 TEMPO BKN014

TAF TAF LFMK
Valid from the 19 at 09:00 until the 20 at 09:00 UTC


190800Z 1909/2009 16012KT 9999 BKN020
BECMG 1910/1913 08012KT NSC
BECMG 1918/1920 VRB02KT
TEMPO 1921/2009 08012KT 1200 BR BKN010
PROB40
TEMPO 2000/2008 0200 FG VV///
No reported NOTAMs for that airfield.
1 SIGMET reported for the Bordeaux FIR (LFBB) :
 
Severe turbulence
LFBB SIGMET 2 VALID 190800/191200 LFPW
LFBB BORDEAUX FIR/UIR SEV TURB FCST NW OF LINE N4330 W00145 - N4715 E00130 FL200/300 STNR NC=



MET'MAP, your aeronautical weather chart ! - Copyright ORBIFLY December 2007 - Disclaimer

ORBIFLY MET'MAP TEAM :

Programming & Development : Alexandra Zaïnal
Concept & Development : Baudouin d'Aumeries
Co-Development & Prog : Marc-Olivier Méhu
Technical & hardware support : Manuel Goepfert

Contact : metmap@orbifly.com




SOURCES & CREDITS :

   NOAA